Time;durP1;ratioP1;P1;durP2;ratioP2;P2;SDS_P1;SDS_P2;PMS_P1;PMS_P2;Temp;Humidity;BMP_temperature;BMP_pressure;BME280_temperature;BME280_humidity;BME280_pressure;Samples;Min_cycle;Max_cycle;Signal;HPM_P1;HPM_P2
2024/04/03 00:02:48;;;;;;;;;5.00;5.00;;;;;26.84;24.02;100610.05;242042;1186;87872;-63
2024/04/03 00:07:51;;;;;;;;;4.00;4.00;;;;;26.85;23.92;100612.98;242108;1186;59368;-66
2024/04/03 00:13:28;;;;;;;;;4.00;4.00;;;;;26.83;23.98;100613.88;242526;1188;59336;-66
2024/04/03 00:18:35;;;;;;;;;5.00;5.00;;;;;26.83;24.00;100618.97;241926;1183;87370;-69
2024/04/03 00:23:52;;;;;;;;;4.00;4.00;;;;;26.81;24.08;100617.38;243195;1185;88610;-69
2024/04/03 00:28:55;;;;;;;;;5.00;5.00;;;;;26.79;24.12;100617.71;241660;1186;88985;-66
2024/04/03 00:34:07;;;;;;;;;4.00;4.00;;;;;26.80;24.24;100626.14;242368;1184;59546;-67
2024/04/03 00:39:42;;;;;;;;;4.33;4.33;;;;;26.81;24.25;100626.75;242633;1187;88189;-63
2024/04/03 00:45:12;;;;;;;;;5.00;5.00;;;;;26.82;24.50;100626.59;242630;1185;88471;-71
2024/04/03 00:50:48;;;;;;;;;5.00;5.00;;;;;26.82;24.34;100620.35;242518;1186;89362;-66
2024/04/03 00:55:57;;;;;;;;;4.00;4.00;;;;;26.82;24.45;100624.07;242695;1183;87829;-69
2024/04/03 01:01:33;;;;;;;;;5.00;5.00;;;;;26.80;24.53;100641.39;243289;1183;87321;-66
2024/04/03 01:06:37;;;;;;;;;5.00;5.00;;;;;26.79;24.39;100648.83;242477;1180;88736;-63
2024/04/03 01:11:53;;;;;;;;;5.00;5.00;;;;;26.79;24.35;100649.98;243440;1184;88605;-66
2024/04/03 01:17:28;;;;;;;;;4.00;4.00;;;;;26.77;24.55;100647.87;243268;1183;89585;-67
2024/04/03 01:22:40;;;;;;;;;4.00;4.00;;;;;26.76;24.68;100653.52;241837;1184;88116;-66
2024/04/03 01:28:17;;;;;;;;;4.00;4.00;;;;;26.77;24.54;100652.86;242745;1183;87797;-66
2024/04/03 01:33:26;;;;;;;;;5.00;5.00;;;;;26.76;24.58;100657.73;242948;1180;87344;-68
2024/04/03 01:39:02;;;;;;;;;4.00;4.00;;;;;26.76;24.87;100665.30;243709;1181;87512;-69
2024/04/03 01:44:14;;;;;;;;;5.00;5.00;;;;;26.75;24.82;100656.40;243286;1184;88143;-69
2024/04/03 01:49:28;;;;;;;;;4.00;4.00;;;;;26.74;24.80;100652.89;243288;1180;87913;-66
2024/04/03 01:54:31;;;;;;;;;4.00;4.00;;;;;26.72;24.91;100663.60;242610;1183;88923;-66
2024/04/03 01:59:34;;;;;;;;;4.00;4.00;;;;;26.72;24.90;100661.52;242008;1179;59398;-68
2024/04/03 02:04:37;;;;;;;;;6.00;5.00;;;;;26.72;24.93;100655.20;243254;1183;89021;-65
2024/04/03 02:09:40;;;;;;;;;5.00;5.00;;;;;26.72;25.04;100661.56;242591;1185;59540;-65
2024/04/03 02:14:43;;;;;;;;;8.00;5.00;;;;;26.71;24.96;100669.02;242345;1183;59509;-68
2024/04/03 02:19:49;;;;;;;;;5.00;5.00;;;;;26.71;25.04;100669.52;242832;1180;59578;-69
2024/04/03 02:24:55;;;;;;;;;5.00;5.00;;;;;26.70;25.13;100672.63;242944;1183;88571;-69
2024/04/03 02:30:00;;;;;;;;;4.33;4.33;;;;;26.69;25.22;100678.80;242859;1183;88385;-66
2024/04/03 02:35:05;;;;;;;;;;;;;;;26.68;25.19;100682.20;242205;1184;88538;-69
2024/04/03 02:40:41;;;;;;;;;4.00;4.00;;;;;26.68;25.21;100680.92;243591;1184;88230;-67
2024/04/03 02:45:54;;;;;;;;;5.00;5.00;;;;;26.67;25.25;100682.39;243143;1183;88356;-66
2024/04/03 02:51:30;;;;;;;;;5.00;5.00;;;;;26.66;25.33;100693.95;243374;1183;88451;-63
2024/04/03 02:56:46;;;;;;;;;4.00;4.00;;;;;26.65;25.38;100696.12;243059;1184;88126;-66
2024/04/03 03:02:39;;;;;;;;;7.00;7.00;;;;;26.61;25.24;100696.65;243063;1187;88336;-64
2024/04/03 03:07:43;;;;;;;;;7.25;7.25;;;;;26.57;24.87;100691.11;243003;1186;88924;-70
2024/04/03 03:12:52;;;;;;;;;6.50;5.50;;;;;26.51;25.13;100697.14;242630;1180;87375;-67
2024/04/03 03:18:11;;;;;;;;;6.00;6.00;;;;;26.45;25.08;100703.78;242876;1185;87819;-67
2024/04/03 03:23:46;;;;;;;;;7.00;7.00;;;;;26.37;25.11;100704.56;242929;1179;86383;-67
2024/04/03 03:28:53;;;;;;;;;6.75;6.75;;;;;26.33;24.76;100711.77;242713;1186;88114;-70
2024/04/03 03:34:29;;;;;;;;;8.00;8.00;;;;;26.31;24.63;100716.02;243112;1182;87674;-70
2024/04/03 03:40:00;;;;;;;;;7.00;6.00;;;;;26.29;24.38;100716.40;241706;1193;88879;-64
2024/04/03 03:45:09;;;;;;;;;9.00;8.00;;;;;26.28;24.43;100730.42;241551;1186;88239;-67
2024/04/03 03:56:08;;;;;;;;;8.00;8.00;;;;;26.21;24.31;100744.95;241669;1186;88385;-67
2024/04/03 04:01:29;;;;;;;;;9.00;9.00;;;;;26.18;24.25;100744.55;242634;1187;88665;-67
2024/04/03 04:06:35;;;;;;;;;12.00;12.00;;;;;26.14;23.75;100754.66;243236;1185;87634;-70
2024/04/03 04:11:38;;;;;;;;;9.25;9.25;;;;;26.10;23.55;100769.39;242572;1185;87843;-68
2024/04/03 04:16:42;;;;;;;;;11.00;11.00;;;;;26.07;23.42;100771.75;242295;1183;59389;-67
2024/04/03 04:21:46;;;;;;;;;9.00;9.00;;;;;26.04;23.28;100766.86;242887;1186;89066;-68
2024/04/03 04:26:52;;;;;;;;;11.25;10.25;;;;;26.03;23.28;100769.73;242798;1185;88451;-65
2024/04/03 04:31:55;;;;;;;;;10.00;8.00;;;;;26.01;23.10;100780.23;242303;1185;88506;-68
2024/04/03 04:36:58;;;;;;;;;10.33;9.67;;;;;25.76;22.36;100789.97;242187;1185;59545;-67
2024/04/03 04:42:02;;;;;;;;;12.00;10.00;;;;;25.25;22.68;100792.23;242072;1186;88171;-69
2024/04/03 04:47:40;;;;;;;;;11.25;11.25;;;;;25.06;23.40;100802.25;242985;1186;88884;-67
2024/04/03 04:52:44;;;;;;;;;10.33;8.00;;;;;25.27;24.69;100812.70;243636;1184;88276;-67
2024/04/03 04:58:19;;;;;;;;;9.75;9.75;;;;;25.54;25.27;100819.82;243936;1180;88445;-72
2024/04/03 05:03:48;;;;;;;;;15.33;10.00;;;;;25.89;26.47;100828.73;243839;1180;87658;-67
2024/04/03 05:08:51;;;;;;;;;10.50;10.00;;;;;26.27;27.22;100832.14;243839;1180;88459;-71
2024/04/03 05:13:55;;;;;;;;;15.25;11.25;;;;;26.56;27.47;100835.91;244273;1186;88969;-71
2024/04/03 05:19:00;;;;;;;;;13.67;10.00;;;;;26.80;27.83;100839.58;242130;1186;87760;-70
2024/04/03 05:24:04;;;;;;;;;9.25;9.25;;;;;27.04;27.80;100838.65;241539;1186;88464;-72
2024/04/03 05:29:08;;;;;;;;;10.00;7.25;;;;;27.25;28.35;100845.27;242334;1180;89329;-67
2024/04/03 05:34:12;;;;;;;;;10.75;10.00;;;;;27.40;28.06;100851.02;244180;1180;59406;-66
2024/04/03 05:39:16;;;;;;;;;13.25;10.00;;;;;27.48;28.07;100852.19;244293;1179;87740;-67
2024/04/03 05:44:41;;;;;;;;;15.00;12.00;;;;;27.58;28.47;100847.17;242889;1179;88738;-72
2024/04/03 05:49:56;;;;;;;;;12.00;12.00;;;;;27.69;28.48;100850.02;243173;1181;87522;-71
2024/04/03 05:55:00;;;;;;;;;13.00;9.50;;;;;27.79;27.89;100853.02;244242;1182;87976;-68
2024/04/03 06:00:05;;;;;;;;;10.00;10.00;;;;;27.29;25.17;100858.13;244203;1179;88482;-71
2024/04/03 06:05:11;;;;;;;;;14.67;11.67;;;;;26.82;25.71;100858.55;244109;1180;88877;-67
2024/04/03 06:10:19;;;;;;;;;11.00;10.00;;;;;26.87;28.01;100868.67;244120;1182;88823;-68
2024/04/03 06:15:28;;;;;;;;;13.00;12.00;;;;;27.10;27.86;100868.46;244147;1186;88033;-67
2024/04/03 06:20:32;;;;;;;;;11.67;10.00;;;;;27.30;28.36;100860.36;244415;1183;88661;-69
2024/04/03 06:25:37;;;;;;;;;17.75;12.50;;;;;27.48;28.23;100863.45;244209;1179;88425;-73
2024/04/03 06:30:40;;;;;;;;;12.67;9.67;;;;;27.48;27.27;100863.56;244270;1180;88560;-74
2024/04/03 06:35:45;;;;;;;;;14.25;12.50;;;;;27.15;25.78;100869.04;244255;1189;88835;-72
2024/04/03 06:40:50;;;;;;;;;12.25;12.25;;;;;26.86;25.32;100869.98;244288;1186;88504;-70
2024/04/03 06:45:55;;;;;;;;;10.33;10.00;;;;;26.70;25.35;100865.02;244335;1182;88565;-72
2024/04/03 06:51:00;;;;;;;;;10.67;9.00;;;;;26.60;25.20;100862.34;244249;1184;89190;-72
2024/04/03 06:56:05;;;;;;;;;14.50;9.00;;;;;26.67;25.58;100867.07;244310;1185;88414;-76
2024/04/03 07:01:19;;;;;;;;;10.50;9.00;;;;;26.83;25.15;100865.04;244452;1180;87653;-80
2024/04/03 07:06:23;;;;;;;;;10.00;9.25;;;;;26.66;26.10;100871.85;244420;1180;89012;-73
2024/04/03 07:11:29;;;;;;;;;10.00;8.67;;;;;26.91;27.96;100874.67;242769;1180;88858;-70
2024/04/03 07:16:32;;;;;;;;;13.00;11.00;;;;;27.17;28.32;100876.10;242510;1180;88913;-72
2024/04/03 07:21:38;;;;;;;;;9.00;9.00;;;;;27.37;28.18;100866.73;244549;1179;89036;-75
2024/04/03 07:26:41;;;;;;;;;12.50;9.00;;;;;27.53;28.06;100867.88;244595;1184;88247;-73
2024/04/03 07:31:45;;;;;;;;;14.00;8.00;;;;;27.66;28.35;100865.02;244630;1180;87099;-75
2024/04/03 07:36:49;;;;;;;;;13.33;10.33;;;;;27.77;28.08;100859.98;244747;1180;87931;-74
2024/04/03 07:41:53;;;;;;;;;10.50;10.50;;;;;27.86;28.24;100860.49;244574;1187;89150;-74
2024/04/03 07:47:04;;;;;;;;;13.67;11.33;;;;;27.97;28.10;100858.50;244625;1186;87639;-85
2024/04/03 07:52:11;;;;;;;;;8.00;7.00;;;;;28.07;28.58;100855.94;244828;1180;88058;-82
2024/04/03 07:57:15;;;;;;;;;7.00;6.00;;;;;27.94;25.62;100850.38;244738;1179;87555;-78
2024/04/03 08:02:20;;;;;;;;;9.50;6.75;;;;;27.42;25.08;100848.52;244491;1180;88661;-79
2024/04/03 08:07:24;;;;;;;;;8.00;7.75;;;;;27.30;26.98;100846.35;244560;1180;87579;-79
2024/04/03 08:12:32;;;;;;;;;9.25;7.25;;;;;27.35;26.89;100845.05;244200;1180;86437;-83
2024/04/03 08:17:36;;;;;;;;;5.67;5.67;;;;;27.32;27.29;100846.11;243408;1179;88594;-81
2024/04/03 08:22:40;;;;;;;;;7.00;7.00;;;;;27.44;27.97;100851.04;243585;1179;87840;-77
2024/04/03 08:27:43;;;;;;;;;5.00;5.00;;;;;27.70;29.64;100855.02;243643;1180;88206;-75
2024/04/03 08:32:47;;;;;;;;;8.75;6.75;;;;;27.91;30.35;100855.23;243312;1185;87940;-76
2024/04/03 08:37:51;;;;;;;;;9.25;7.25;;;;;28.01;29.78;100857.29;243559;1179;89823;-76
2024/04/03 08:43:01;;;;;;;;;5.50;5.50;;;;;28.14;29.74;100856.92;243412;1180;88357;-75
2024/04/03 08:48:07;;;;;;;;;5.67;5.67;;;;;28.24;29.91;100849.35;243411;1187;88267;-75
2024/04/03 08:53:14;;;;;;;;;5.00;5.00;;;;;28.36;29.28;100855.33;243194;1183;89255;-74
2024/04/03 08:58:19;;;;;;;;;5.00;5.00;;;;;28.34;26.14;100851.63;243183;1180;89116;-69
2024/04/03 09:03:22;;;;;;;;;5.50;5.50;;;;;27.90;24.42;100852.52;240189;1179;88974;-70
2024/04/03 09:08:26;;;;;;;;;8.00;6.00;;;;;27.59;24.62;100856.91;240033;1181;89307;-70
2024/04/03 09:13:31;;;;;;;;;10.00;6.50;;;;;27.45;24.14;100853.96;239797;1186;88087;-69
2024/04/03 09:18:35;;;;;;;;;11.33;8.67;;;;;27.33;23.70;100851.95;244575;1179;88520;-69
2024/04/03 09:23:40;;;;;;;;;12.00;6.00;;;;;27.49;24.18;100860.38;244689;1179;59616;-69
2024/04/03 09:28:44;;;;;;;;;10.50;8.50;;;;;27.56;23.75;100864.13;244479;1179;88092;-68
2024/04/03 09:33:49;;;;;;;;;11.75;7.00;;;;;27.63;23.58;100852.86;244673;1183;88348;-68
2024/04/03 09:38:52;;;;;;;;;14.67;8.00;;;;;27.71;23.59;100860.75;244787;1189;88784;-68
2024/04/03 09:44:00;;;;;;;;;9.50;5.75;;;;;27.82;23.11;100859.88;244501;1184;87661;-69
2024/04/03 09:49:04;;;;;;;;;10.50;6.00;;;;;27.87;22.87;100864.28;242733;1184;88726;-65
2024/04/03 09:54:10;;;;;;;;;10.67;6.00;;;;;28.02;22.96;100850.00;244564;1185;88415;-65
2024/04/03 09:59:13;;;;;;;;;15.50;10.00;;;;;28.13;22.72;100852.60;244609;1179;88058;-65
2024/04/03 10:04:17;;;;;;;;;8.67;7.00;;;;;28.24;22.44;100841.15;244688;1185;88111;-66
2024/04/03 10:09:25;;;;;;;;;9.00;6.50;;;;;28.30;22.30;100836.45;244625;1190;88651;-64
2024/04/03 10:14:30;;;;;;;;;9.67;6.00;;;;;28.45;21.99;100826.73;244894;1183;88418;-69
2024/04/03 10:19:34;;;;;;;;;8.00;6.67;;;;;28.42;21.85;100833.36;244712;1185;87876;-70
2024/04/03 10:24:37;;;;;;;;;11.00;8.00;;;;;28.43;22.03;100835.85;244577;1193;87889;-70
2024/04/03 10:29:41;;;;;;;;;7.75;6.50;;;;;28.41;21.97;100835.89;244814;1186;87428;-71
2024/04/03 10:34:44;;;;;;;;;7.33;5.67;;;;;28.53;21.68;100834.92;244697;1185;88565;-71
2024/04/03 10:39:51;;;;;;;;;7.67;6.33;;;;;28.65;21.76;100835.32;244940;1180;89364;-68
2024/04/03 10:44:55;;;;;;;;;5.50;5.50;;;;;28.67;21.43;100827.54;244556;1183;89247;-72
2024/04/03 10:49:59;;;;;;;;;7.00;6.00;;;;;28.73;21.29;100830.25;244528;1180;89093;-72
2024/04/03 10:55:02;;;;;;;;;6.50;6.00;;;;;28.82;21.17;100821.08;244532;1180;88810;-71
2024/04/03 11:00:12;;;;;;;;;5.25;5.25;;;;;28.91;21.49;100818.02;244633;1179;88325;-72
2024/04/03 11:05:17;;;;;;;;;8.25;4.75;;;;;29.00;20.90;100814.45;244566;1185;88776;-71
2024/04/03 11:10:22;;;;;;;;;5.50;5.50;;;;;29.11;20.74;100809.86;244711;1185;59230;-72
2024/04/03 11:15:27;;;;;;;;;4.75;4.75;;;;;29.26;20.42;100798.96;244718;1180;88885;-71
2024/04/03 11:20:34;;;;;;;;;6.25;5.00;;;;;29.41;20.40;100794.94;245171;1183;88521;-71
2024/04/03 11:25:38;;;;;;;;;8.33;4.67;;;;;29.53;20.16;100790.45;244672;1180;88410;-71
2024/04/03 11:30:45;;;;;;;;;5.00;5.00;;;;;29.65;20.06;100771.80;245140;1183;87890;-71
2024/04/03 11:35:50;;;;;;;;;6.00;5.00;;;;;29.76;19.83;100768.07;245061;1183;88142;-73
2024/04/03 11:40:56;;;;;;;;;5.00;5.00;;;;;29.86;19.63;100762.05;244967;1184;87104;-72
2024/04/03 11:46:00;;;;;;;;;7.50;5.00;;;;;29.94;19.74;100755.90;244624;1180;89324;-70
2024/04/03 11:51:12;;;;;;;;;5.00;5.00;;;;;30.02;19.56;100757.70;245141;1183;87921;-70
2024/04/03 11:56:16;;;;;;;;;5.75;5.75;;;;;30.09;19.57;100753.27;245162;1183;87350;-70
2024/04/03 12:01:19;;;;;;;;;5.33;4.33;;;;;30.16;19.52;100749.00;244847;1183;59250;-70
2024/04/03 12:06:24;;;;;;;;;4.67;4.67;;;;;30.22;19.38;100750.13;244897;1183;88507;-70
2024/04/03 12:11:29;;;;;;;;;5.00;5.00;;;;;30.27;19.48;100751.46;244965;1183;88619;-70
2024/04/03 12:16:32;;;;;;;;;5.75;5.75;;;;;30.34;19.34;100747.35;244945;1183;87792;-70
2024/04/03 12:21:35;;;;;;;;;5.00;5.00;;;;;30.40;19.23;100741.50;244953;1180;88876;-70
2024/04/03 12:26:39;;;;;;;;;3.33;3.33;;;;;30.47;19.24;100734.50;244953;1180;87720;-70
2024/04/03 12:31:43;;;;;;;;;4.50;4.50;;;;;30.61;19.13;100730.98;244952;1183;88892;-70
2024/04/03 12:36:46;;;;;;;;;5.00;5.00;;;;;30.72;18.94;100729.41;244916;1186;88380;-70
2024/04/03 12:42:12;;;;;;;;;6.00;6.00;;;;;30.81;18.97;100722.41;245047;1183;88312;-69
2024/04/03 12:47:16;;;;;;;;;6.00;5.00;;;;;30.83;18.75;100715.84;244935;1184;88133;-70
2024/04/03 12:52:20;;;;;;;;;4.25;4.25;;;;;30.82;18.93;100715.94;244924;1183;87944;-70
2024/04/03 12:57:24;;;;;;;;;5.75;4.50;;;;;30.79;19.08;100720.71;244906;1183;91092;-70
2024/04/03 13:02:28;;;;;;;;;7.25;5.25;;;;;30.70;19.25;100713.89;244944;1183;88573;-70
2024/04/03 13:07:32;;;;;;;;;4.25;4.25;;;;;30.43;19.72;100722.85;244721;1185;88338;-71
2024/04/03 13:12:35;;;;;;;;;6.67;6.00;;;;;30.30;19.46;100713.71;244754;1179;88716;-70
2024/04/03 13:17:39;;;;;;;;;3.50;3.50;;;;;30.31;19.64;100711.67;244732;1186;89093;-70
2024/04/03 13:22:43;;;;;;;;;3.00;3.00;;;;;30.27;19.47;100709.52;244883;1183;59178;-70
2024/04/03 13:27:47;;;;;;;;;5.00;5.00;;;;;30.02;19.84;100713.69;244965;1179;88308;-70
2024/04/03 13:32:51;;;;;;;;;7.33;5.67;;;;;29.87;20.21;100724.54;245039;1183;88189;-70
2024/04/03 13:37:55;;;;;;;;;5.00;5.00;;;;;29.84;20.19;100716.26;245010;1183;88383;-70
2024/04/03 13:42:58;;;;;;;;;5.00;5.00;;;;;29.72;20.35;100719.18;245003;1183;87363;-70
2024/04/03 13:48:02;;;;;;;;;4.25;4.25;;;;;29.54;20.80;100720.30;245011;1183;87887;-70
2024/04/03 13:53:06;;;;;;;;;4.33;4.33;;;;;29.39;20.76;100713.48;245031;1183;88451;-70
2024/04/03 13:58:10;;;;;;;;;4.67;4.00;;;;;29.35;21.11;100704.36;245000;1183;88446;-70
2024/04/03 14:03:14;;;;;;;;;6.00;4.75;;;;;29.19;21.20;100696.70;245022;1186;88498;-70
2024/04/03 14:08:17;;;;;;;;;3.50;3.50;;;;;29.01;21.41;100708.34;245292;1183;87881;-71
2024/04/03 14:13:21;;;;;;;;;4.50;4.50;;;;;28.85;21.08;100715.11;244944;1183;88295;-70
2024/04/03 14:18:24;;;;;;;;;3.33;3.33;;;;;28.71;21.14;100723.42;244968;1192;88031;-71
2024/04/03 14:23:27;;;;;;;;;5.00;5.00;;;;;28.65;21.14;100722.55;245325;1183;59264;-71
2024/04/03 14:28:32;;;;;;;;;5.00;3.50;;;;;28.72;21.26;100717.60;244984;1183;87629;-71
2024/04/03 14:33:37;;;;;;;;;4.25;4.25;;;;;28.63;21.54;100720.38;244962;1183;88519;-71
2024/04/03 14:38:41;;;;;;;;;6.00;6.00;;;;;28.52;21.64;100721.98;244738;1182;88599;-71
2024/04/03 14:43:44;;;;;;;;;4.33;4.33;;;;;28.47;21.61;100723.80;244908;1185;88340;-70
2024/04/03 14:48:47;;;;;;;;;6.33;6.33;;;;;28.40;21.78;100724.34;244907;1182;88625;-71
2024/04/03 14:53:52;;;;;;;;;4.75;4.75;;;;;28.36;21.88;100726.95;245007;1183;88327;-71
2024/04/03 14:58:56;;;;;;;;;6.00;5.00;;;;;28.40;21.79;100727.20;244967;1183;88176;-70
2024/04/03 15:03:59;;;;;;;;;4.50;4.50;;;;;28.44;21.90;100728.52;244945;1180;87084;-71
2024/04/03 15:09:04;;;;;;;;;4.00;4.00;;;;;28.41;21.76;100734.59;244989;1183;88245;-70
2024/04/03 15:14:08;;;;;;;;;5.00;5.00;;;;;28.33;21.98;100741.20;244998;1183;89317;-71
2024/04/03 15:19:12;;;;;;;;;6.00;4.25;;;;;28.27;21.93;100740.39;244996;1183;87570;-72
2024/04/03 15:24:16;;;;;;;;;4.50;4.50;;;;;28.19;22.11;100739.93;245001;1180;88985;-72
2024/04/03 15:29:22;;;;;;;;;5.50;5.50;;;;;28.14;22.48;100741.40;245332;1180;88085;-72
2024/04/03 15:34:28;;;;;;;;;5.00;5.00;;;;;28.08;22.15;100739.85;245315;1183;89210;-72
2024/04/03 15:39:32;;;;;;;;;4.50;4.50;;;;;28.02;22.35;100743.91;244972;1183;88888;-72
2024/04/03 15:44:36;;;;;;;;;6.00;6.00;;;;;27.99;22.63;100751.86;244735;1182;87934;-72
2024/04/03 15:49:39;;;;;;;;;4.25;4.25;;;;;27.95;22.79;100757.98;244761;1185;88393;-72
2024/04/03 15:54:43;;;;;;;;;6.00;6.00;;;;;27.91;22.79;100759.67;244752;1180;88461;-72
2024/04/03 15:59:47;;;;;;;;;6.00;6.00;;;;;27.87;23.00;100764.34;244977;1189;87817;-72
2024/04/03 16:04:50;;;;;;;;;5.33;5.33;;;;;27.83;22.97;100773.91;244978;1183;89345;-71
2024/04/03 16:09:53;;;;;;;;;5.00;5.00;;;;;27.80;22.95;100776.68;245323;1180;88682;-72
2024/04/03 16:14:57;;;;;;;;;6.33;6.33;;;;;27.75;23.23;100779.42;244948;1183;88188;-72
2024/04/03 16:20:00;;;;;;;;;6.00;5.50;;;;;27.72;23.37;100788.62;245262;1188;87939;-72
2024/04/03 16:25:05;;;;;;;;;5.25;5.25;;;;;27.67;23.05;100797.24;245297;1183;87870;-72
2024/04/03 16:30:09;;;;;;;;;4.00;4.00;;;;;27.63;23.02;100800.98;244988;1183;87799;-72
2024/04/03 16:35:14;;;;;;;;;5.75;5.25;;;;;27.60;23.16;100801.66;244991;1183;87854;-72
2024/04/03 16:40:18;;;;;;;;;8.50;8.50;;;;;27.57;23.57;100806.60;244940;1188;88838;-71
2024/04/03 16:45:22;;;;;;;;;6.50;5.00;;;;;27.54;23.57;100804.92;245315;1183;88295;-72
2024/04/03 16:50:27;;;;;;;;;5.75;5.75;;;;;27.51;23.88;100813.73;244942;1183;88112;-71
2024/04/03 16:55:31;;;;;;;;;5.50;5.00;;;;;27.49;23.69;100816.73;245008;1183;88597;-71
2024/04/03 17:00:36;;;;;;;;;8.00;6.00;;;;;27.46;24.09;100822.33;245294;1183;88219;-71
2024/04/03 17:05:41;;;;;;;;;4.00;4.00;;;;;27.43;24.12;100827.93;244963;1183;88226;-72
2024/04/03 17:10:47;;;;;;;;;7.00;5.00;;;;;27.41;24.11;100830.70;245321;1180;89168;-71
2024/04/03 17:15:50;;;;;;;;;6.00;6.00;;;;;27.39;24.25;100836.88;244961;1179;87209;-72
2024/04/03 17:20:54;;;;;;;;;5.25;5.25;;;;;27.37;24.08;100836.56;245347;1183;88168;-72
2024/04/03 17:25:57;;;;;;;;;5.00;5.00;;;;;27.34;24.14;100842.67;245297;1183;89858;-72
2024/04/03 17:31:01;;;;;;;;;3.67;3.67;;;;;27.32;24.34;100852.41;244975;1180;88436;-72
2024/04/03 17:36:05;;;;;;;;;6.25;6.25;;;;;27.30;24.34;100855.27;245311;1191;87939;-71
2024/04/03 17:41:09;;;;;;;;;6.25;4.50;;;;;27.28;24.41;100858.88;245156;1183;87993;-71
2024/04/03 17:46:16;;;;;;;;;5.00;5.00;;;;;27.26;24.40;100863.70;245025;1186;87537;-71
2024/04/03 17:51:20;;;;;;;;;7.00;7.00;;;;;27.25;24.48;100860.82;245314;1183;88897;-71
2024/04/03 17:56:24;;;;;;;;;7.00;6.00;;;;;27.23;24.53;100866.43;245025;1191;88324;-71
2024/04/03 18:01:28;;;;;;;;;5.00;5.00;;;;;27.21;24.76;100876.41;244993;1179;88230;-72
2024/04/03 18:06:31;;;;;;;;;7.00;7.00;;;;;27.20;24.89;100878.77;245268;1180;88497;-72
2024/04/03 18:11:35;;;;;;;;;5.75;5.75;;;;;27.19;24.80;100878.27;244942;1180;88470;-71
2024/04/03 18:16:52;;;;;;;;;5.00;5.00;;;;;27.17;24.87;100876.22;245343;1180;88891;-72
2024/04/03 18:21:58;;;;;;;;;6.50;6.50;;;;;27.15;24.84;100881.59;245300;1180;88964;-71
2024/04/03 18:27:02;;;;;;;;;5.50;5.25;;;;;27.14;25.08;100890.01;244967;1183;88081;-71
2024/04/03 18:32:05;;;;;;;;;5.25;5.25;;;;;27.12;24.83;100895.02;244999;1183;88241;-71
2024/04/03 18:37:10;;;;;;;;;6.67;6.00;;;;;27.11;25.27;100900.39;245288;1183;88624;-71
2024/04/03 18:42:14;;;;;;;;;4.50;4.50;;;;;27.10;25.28;100900.09;244956;1183;88557;-71
2024/04/03 18:47:18;;;;;;;;;5.67;5.67;;;;;27.08;25.28;100895.33;245003;1183;88342;-72
2024/04/03 18:52:22;;;;;;;;;5.00;5.00;;;;;27.07;25.06;100902.60;244984;1185;87913;-71
2024/04/03 18:57:27;;;;;;;;;6.75;6.75;;;;;27.07;25.08;100907.30;245006;1183;89234;-72
2024/04/03 19:02:31;;;;;;;;;7.00;7.00;;;;;27.04;25.22;100907.85;245281;1192;88273;-72
2024/04/03 19:07:34;;;;;;;;;5.00;5.00;;;;;27.03;25.43;100911.56;244999;1183;88125;-72
2024/04/03 19:12:37;;;;;;;;;5.50;5.50;;;;;27.02;25.46;100917.20;244971;1183;59428;-71
2024/04/03 19:17:41;;;;;;;;;6.67;6.67;;;;;27.01;25.37;100920.61;244986;1183;88090;-72
2024/04/03 19:22:45;;;;;;;;;6.00;6.00;;;;;27.00;25.53;100926.25;244961;1186;87722;-72
2024/04/03 19:27:50;;;;;;;;;6.00;6.00;;;;;26.99;25.45;100928.58;244991;1180;87677;-71
2024/04/03 19:32:53;;;;;;;;;5.00;5.00;;;;;26.98;25.62;100921.58;245333;1183;88694;-71
2024/04/03 19:37:56;;;;;;;;;8.50;7.25;;;;;26.97;25.56;100920.73;244992;1183;88487;-72
2024/04/03 19:43:00;;;;;;;;;7.00;7.00;;;;;26.96;25.59;100921.66;245301;1183;89232;-72
2024/04/03 19:48:04;;;;;;;;;5.75;5.75;;;;;26.94;25.64;100927.60;245330;1183;87674;-72
2024/04/03 19:53:09;;;;;;;;;5.75;5.75;;;;;26.94;25.55;100928.27;245382;1180;87824;-71
2024/04/03 19:58:12;;;;;;;;;5.75;5.75;;;;;26.93;25.47;100932.08;245040;1186;88915;-71
2024/04/03 20:03:15;;;;;;;;;6.25;6.25;;;;;26.93;25.48;100946.45;244993;1183;89285;-72
2024/04/03 20:08:18;;;;;;;;;5.67;5.67;;;;;26.92;25.52;100955.34;244987;1183;88642;-72
2024/04/03 20:13:22;;;;;;;;;5.67;5.67;;;;;26.91;25.63;100948.30;244994;1183;88984;-71
2024/04/03 20:18:25;;;;;;;;;4.75;4.75;;;;;26.89;25.59;100944.03;245034;1183;59152;-72
2024/04/03 20:23:29;;;;;;;;;8.50;6.50;;;;;26.89;25.68;100953.95;244968;1183;88908;-72
2024/04/03 20:28:34;;;;;;;;;6.00;6.00;;;;;26.88;25.72;100953.98;245317;1192;86944;-71
2024/04/03 20:33:38;;;;;;;;;8.50;8.50;;;;;26.88;25.84;100954.75;244992;1183;89274;-71
2024/04/03 20:38:42;;;;;;;;;8.50;7.00;;;;;26.87;25.80;100959.67;244933;1179;88112;-71
2024/04/03 20:43:48;;;;;;;;;8.00;6.50;;;;;26.86;25.80;100964.27;244984;1180;87744;-72
2024/04/03 20:48:52;;;;;;;;;7.33;6.00;;;;;26.85;25.85;100975.34;245291;1183;87565;-72
2024/04/03 20:53:56;;;;;;;;;8.00;6.25;;;;;26.85;25.75;100972.11;245000;1184;87327;-72
2024/04/03 20:59:00;;;;;;;;;6.00;6.00;;;;;26.83;25.86;100967.23;244908;1183;88222;-71
2024/04/03 21:04:07;;;;;;;;;7.50;6.75;;;;;26.83;25.90;100967.83;244986;1183;88985;-72
2024/04/03 21:09:12;;;;;;;;;6.00;6.00;;;;;26.82;25.90;100972.11;245010;1179;88268;-72
2024/04/03 21:14:16;;;;;;;;;6.25;6.00;;;;;26.82;26.06;100974.61;245277;1183;89640;-72
2024/04/03 21:19:19;;;;;;;;;5.67;5.67;;;;;26.80;25.99;100976.85;245019;1180;88091;-72
2024/04/03 21:24:23;;;;;;;;;7.50;6.00;;;;;26.80;25.89;100981.53;245290;1192;87582;-72
2024/04/03 21:29:27;;;;;;;;;6.75;6.75;;;;;26.79;25.95;100986.35;245003;1180;87602;-71
2024/04/03 21:34:32;;;;;;;;;7.00;6.00;;;;;26.78;26.11;100986.55;245287;1180;88164;-72
2024/04/03 21:39:36;;;;;;;;;5.25;5.25;;;;;26.77;26.02;100981.33;245292;1179;88705;-72
2024/04/03 21:44:39;;;;;;;;;6.25;5.50;;;;;26.76;26.23;100979.67;245287;1183;88229;-71
2024/04/03 21:49:43;;;;;;;;;6.75;6.50;;;;;26.76;26.28;100990.91;245286;1183;88101;-71
2024/04/03 21:54:47;;;;;;;;;7.50;7.50;;;;;26.75;26.31;100992.05;244971;1179;88583;-72
2024/04/03 21:59:51;;;;;;;;;6.00;6.00;;;;;26.75;26.04;100994.08;244990;1183;88518;-72
2024/04/03 22:04:54;;;;;;;;;8.00;5.00;;;;;26.74;26.41;100994.22;245002;1186;88495;-72
2024/04/03 22:09:57;;;;;;;;;5.75;4.75;;;;;26.74;26.27;100988.93;245320;1183;89109;-72
2024/04/03 22:15:01;;;;;;;;;7.00;7.00;;;;;26.74;26.31;100991.02;244986;1180;89172;-72
2024/04/03 22:20:05;;;;;;;;;8.00;8.00;;;;;26.73;26.30;100998.09;245329;1183;88766;-72
2024/04/03 22:25:09;;;;;;;;;7.00;7.00;;;;;26.72;26.32;100995.55;244971;1183;88912;-72
2024/04/03 22:30:12;;;;;;;;;6.00;6.00;;;;;26.71;26.19;100990.21;244979;1180;88669;-72
2024/04/03 22:35:16;;;;;;;;;7.50;7.00;;;;;26.71;26.58;101006.08;245313;1183;86749;-72
2024/04/03 22:40:20;;;;;;;;;8.00;7.00;;;;;26.70;26.52;101001.13;245296;1183;88439;-72
2024/04/03 22:45:23;;;;;;;;;8.00;7.00;;;;;26.69;26.42;101010.96;244997;1185;89030;-72
2024/04/03 22:50:28;;;;;;;;;6.50;6.50;;;;;26.69;26.39;101014.64;245005;1192;87487;-72
2024/04/03 22:55:31;;;;;;;;;7.00;7.00;;;;;26.68;26.58;101006.77;245316;1183;88238;-71
2024/04/03 23:00:34;;;;;;;;;5.00;5.00;;;;;26.67;26.51;101014.70;244991;1183;88766;-72
2024/04/03 23:05:38;;;;;;;;;7.00;7.00;;;;;26.67;26.52;101008.60;244819;1183;88443;-72
2024/04/03 23:10:42;;;;;;;;;6.00;6.00;;;;;26.66;26.55;100995.19;244996;1180;88694;-72
2024/04/03 23:15:46;;;;;;;;;7.33;7.33;;;;;26.65;26.40;100989.63;244973;1192;88598;-72
2024/04/03 23:20:50;;;;;;;;;5.75;5.75;;;;;26.64;26.73;100983.74;244987;1183;88427;-72
2024/04/03 23:25:55;;;;;;;;;7.25;7.25;;;;;26.64;26.73;100978.89;245309;1183;87189;-72
2024/04/03 23:30:59;;;;;;;;;6.75;6.75;;;;;26.63;26.75;100976.42;245304;1183;88864;-72